sensor_id;sensor_type;location;lat;lon;timestamp;temperature;humidity
11426;DHT22;5769;47.998;7.788;2023-09-19T00:00:06;22.50;82.00
11426;DHT22;5769;47.998;7.788;2023-09-19T00:02:38;22.50;81.90
11426;DHT22;5769;47.998;7.788;2023-09-19T00:05:05;22.50;81.90
11426;DHT22;5769;47.998;7.788;2023-09-19T00:07:33;22.50;81.90
11426;DHT22;5769;47.998;7.788;2023-09-19T00:10:02;22.50;81.90
11426;DHT22;5769;47.998;7.788;2023-09-19T00:12:30;22.50;81.90
11426;DHT22;5769;47.998;7.788;2023-09-19T00:14:58;22.50;81.90
11426;DHT22;5769;47.998;7.788;2023-09-19T00:17:26;22.50;81.90
11426;DHT22;5769;47.998;7.788;2023-09-19T00:19:56;22.50;81.90
11426;DHT22;5769;47.998;7.788;2023-09-19T00:22:22;22.50;81.80
11426;DHT22;5769;47.998;7.788;2023-09-19T00:24:51;22.50;81.90
11426;DHT22;5769;47.998;7.788;2023-09-19T00:27:18;22.50;81.90
11426;DHT22;5769;47.998;7.788;2023-09-19T00:29:45;22.50;82.50
11426;DHT22;5769;47.998;7.788;2023-09-19T00:32:13;22.50;81.80
11426;DHT22;5769;47.998;7.788;2023-09-19T00:34:40;22.50;81.70
11426;DHT22;5769;47.998;7.788;2023-09-19T00:37:07;22.50;81.70
11426;DHT22;5769;47.998;7.788;2023-09-19T00:39:36;22.50;81.70
11426;DHT22;5769;47.998;7.788;2023-09-19T00:42:03;22.50;81.70
11426;DHT22;5769;47.998;7.788;2023-09-19T00:44:30;22.50;81.70
11426;DHT22;5769;47.998;7.788;2023-09-19T00:46:57;22.50;81.70
11426;DHT22;5769;47.998;7.788;2023-09-19T00:49:25;22.50;81.70
11426;DHT22;5769;47.998;7.788;2023-09-19T00:51:52;22.50;81.60
11426;DHT22;5769;47.998;7.788;2023-09-19T00:54:19;22.50;81.60
11426;DHT22;5769;47.998;7.788;2023-09-19T00:56:46;22.50;81.60
11426;DHT22;5769;47.998;7.788;2023-09-19T00:59:14;22.50;81.50
11426;DHT22;5769;47.998;7.788;2023-09-19T01:01:41;22.50;81.50
11426;DHT22;5769;47.998;7.788;2023-09-19T01:04:08;22.50;81.50
11426;DHT22;5769;47.998;7.788;2023-09-19T01:06:36;22.50;81.40
11426;DHT22;5769;47.998;7.788;2023-09-19T01:09:05;22.50;81.40
11426;DHT22;5769;47.998;7.788;2023-09-19T01:11:35;22.50;81.40
11426;DHT22;5769;47.998;7.788;2023-09-19T01:14:15;22.50;81.40
11426;DHT22;5769;47.998;7.788;2023-09-19T01:16:53;22.50;81.40
11426;DHT22;5769;47.998;7.788;2023-09-19T01:19:53;22.50;81.30
11426;DHT22;5769;47.998;7.788;2023-09-19T01:22:32;22.50;81.30
11426;DHT22;5769;47.998;7.788;2023-09-19T01:28:20;22.50;81.10
11426;DHT22;5769;47.998;7.788;2023-09-19T01:30:57;22.40;81.00
11426;DHT22;5769;47.998;7.788;2023-09-19T01:33:25;22.50;81.00
11426;DHT22;5769;47.998;7.788;2023-09-19T01:35:52;22.50;81.00
11426;DHT22;5769;47.998;7.788;2023-09-19T01:38:24;22.40;81.60
11426;DHT22;5769;47.998;7.788;2023-09-19T01:40:57;22.40;80.80
11426;DHT22;5769;47.998;7.788;2023-09-19T01:43:32;22.40;80.90
11426;DHT22;5769;47.998;7.788;2023-09-19T01:46:05;22.40;80.80
11426;DHT22;5769;47.998;7.788;2023-09-19T01:48:40;22.40;80.70
11426;DHT22;5769;47.998;7.788;2023-09-19T01:51:14;22.40;80.70
11426;DHT22;5769;47.998;7.788;2023-09-19T01:53:49;22.40;80.70
11426;DHT22;5769;47.998;7.788;2023-09-19T01:56:22;22.40;80.70
11426;DHT22;5769;47.998;7.788;2023-09-19T01:58:55;22.40;80.70
11426;DHT22;5769;47.998;7.788;2023-09-19T02:01:25;22.40;80.70
11426;DHT22;5769;47.998;7.788;2023-09-19T02:03:52;22.50;80.70
11426;DHT22;5769;47.998;7.788;2023-09-19T02:06:19;22.40;80.70
11426;DHT22;5769;47.998;7.788;2023-09-19T02:08:46;22.40;80.70
11426;DHT22;5769;47.998;7.788;2023-09-19T02:11:13;22.40;80.60
11426;DHT22;5769;47.998;7.788;2023-09-19T02:13:40;22.40;80.60
11426;DHT22;5769;47.998;7.788;2023-09-19T02:16:07;22.40;80.60
11426;DHT22;5769;47.998;7.788;2023-09-19T02:18:37;22.40;80.50
11426;DHT22;5769;47.998;7.788;2023-09-19T02:21:04;22.40;80.50
11426;DHT22;5769;47.998;7.788;2023-09-19T02:23:32;22.40;80.50
11426;DHT22;5769;47.998;7.788;2023-09-19T02:25:59;22.40;80.50
11426;DHT22;5769;47.998;7.788;2023-09-19T02:28:26;22.40;80.40
11426;DHT22;5769;47.998;7.788;2023-09-19T02:30:55;22.40;80.40
11426;DHT22;5769;47.998;7.788;2023-09-19T02:33:22;22.40;80.30
11426;DHT22;5769;47.998;7.788;2023-09-19T02:35:54;22.40;80.30
11426;DHT22;5769;47.998;7.788;2023-09-19T02:38:23;22.40;80.30
11426;DHT22;5769;47.998;7.788;2023-09-19T02:40:50;22.40;80.30
11426;DHT22;5769;47.998;7.788;2023-09-19T02:43:17;22.40;80.90
11426;DHT22;5769;47.998;7.788;2023-09-19T02:45:45;22.40;80.20
11426;DHT22;5769;47.998;7.788;2023-09-19T02:48:12;22.40;80.10
11426;DHT22;5769;47.998;7.788;2023-09-19T02:50:38;22.40;80.10
11426;DHT22;5769;47.998;7.788;2023-09-19T02:53:07;22.40;80.10
11426;DHT22;5769;47.998;7.788;2023-09-19T02:55:36;22.40;80.00
11426;DHT22;5769;47.998;7.788;2023-09-19T02:58:03;22.40;80.00
11426;DHT22;5769;47.998;7.788;2023-09-19T03:00:33;22.40;80.70
11426;DHT22;5769;47.998;7.788;2023-09-19T03:03:01;22.40;80.00
11426;DHT22;5769;47.998;7.788;2023-09-19T03:05:28;22.40;79.90
11426;DHT22;5769;47.998;7.788;2023-09-19T03:07:56;22.40;79.90
11426;DHT22;5769;47.998;7.788;2023-09-19T03:10:27;22.40;79.80
11426;DHT22;5769;47.998;7.788;2023-09-19T03:12:55;22.40;79.70
11426;DHT22;5769;47.998;7.788;2023-09-19T03:15:21;22.40;79.70
11426;DHT22;5769;47.998;7.788;2023-09-19T03:17:49;22.40;79.70
11426;DHT22;5769;47.998;7.788;2023-09-19T03:20:17;22.40;79.70
11426;DHT22;5769;47.998;7.788;2023-09-19T03:22:44;22.40;79.70
11426;DHT22;5769;47.998;7.788;2023-09-19T03:25:11;22.40;79.60
11426;DHT22;5769;47.998;7.788;2023-09-19T03:27:40;22.40;79.60
11426;DHT22;5769;47.998;7.788;2023-09-19T03:30:08;22.40;79.60
11426;DHT22;5769;47.998;7.788;2023-09-19T03:32:34;22.40;79.60
11426;DHT22;5769;47.998;7.788;2023-09-19T03:35:01;22.40;79.60
11426;DHT22;5769;47.998;7.788;2023-09-19T03:37:30;22.40;79.50
11426;DHT22;5769;47.998;7.788;2023-09-19T03:39:58;22.40;79.50
11426;DHT22;5769;47.998;7.788;2023-09-19T03:42:24;22.40;79.40
11426;DHT22;5769;47.998;7.788;2023-09-19T03:44:53;22.40;79.40
11426;DHT22;5769;47.998;7.788;2023-09-19T03:47:20;22.40;79.40
11426;DHT22;5769;47.998;7.788;2023-09-19T03:49:47;22.40;79.30
11426;DHT22;5769;47.998;7.788;2023-09-19T03:52:14;22.40;79.40
11426;DHT22;5769;47.998;7.788;2023-09-19T03:54:41;22.40;79.30
11426;DHT22;5769;47.998;7.788;2023-09-19T03:57:08;22.40;79.30
11426;DHT22;5769;47.998;7.788;2023-09-19T03:59:35;22.40;79.30
11426;DHT22;5769;47.998;7.788;2023-09-19T04:02:03;22.40;79.20
11426;DHT22;5769;47.998;7.788;2023-09-19T04:04:37;22.40;79.20
11426;DHT22;5769;47.998;7.788;2023-09-19T04:07:03;22.40;79.20
11426;DHT22;5769;47.998;7.788;2023-09-19T04:09:30;22.40;79.20
11426;DHT22;5769;47.998;7.788;2023-09-19T04:11:57;22.40;79.10
11426;DHT22;5769;47.998;7.788;2023-09-19T04:14:23;22.40;79.10
11426;DHT22;5769;47.998;7.788;2023-09-19T04:16:50;22.30;79.00
11426;DHT22;5769;47.998;7.788;2023-09-19T04:19:18;22.40;79.70
11426;DHT22;5769;47.998;7.788;2023-09-19T04:21:46;22.40;79.00
11426;DHT22;5769;47.998;7.788;2023-09-19T04:24:13;22.40;79.00
11426;DHT22;5769;47.998;7.788;2023-09-19T04:26:39;22.40;79.00
11426;DHT22;5769;47.998;7.788;2023-09-19T04:29:07;22.40;79.00
11426;DHT22;5769;47.998;7.788;2023-09-19T04:31:36;22.40;78.90
11426;DHT22;5769;47.998;7.788;2023-09-19T04:34:05;22.40;79.00
11426;DHT22;5769;47.998;7.788;2023-09-19T04:36:35;22.30;78.90
11426;DHT22;5769;47.998;7.788;2023-09-19T04:39:02;22.30;78.90
11426;DHT22;5769;47.998;7.788;2023-09-19T04:41:31;22.40;79.10
11426;DHT22;5769;47.998;7.788;2023-09-19T04:43:58;22.40;79.20
11426;DHT22;5769;47.998;7.788;2023-09-19T04:46:25;22.40;79.30
11426;DHT22;5769;47.998;7.788;2023-09-19T04:48:51;22.40;79.20
11426;DHT22;5769;47.998;7.788;2023-09-19T04:51:19;22.40;79.10
11426;DHT22;5769;47.998;7.788;2023-09-19T04:53:47;22.40;79.10
11426;DHT22;5769;47.998;7.788;2023-09-19T04:56:14;22.40;79.00
11426;DHT22;5769;47.998;7.788;2023-09-19T04:58:41;22.40;79.00
11426;DHT22;5769;47.998;7.788;2023-09-19T05:01:08;22.40;79.10
11426;DHT22;5769;47.998;7.788;2023-09-19T05:03:37;22.40;79.10
11426;DHT22;5769;47.998;7.788;2023-09-19T05:06:04;22.40;79.10
11426;DHT22;5769;47.998;7.788;2023-09-19T05:08:31;22.40;79.10
11426;DHT22;5769;47.998;7.788;2023-09-19T05:11:01;22.40;79.20
11426;DHT22;5769;47.998;7.788;2023-09-19T05:13:28;22.40;79.20
11426;DHT22;5769;47.998;7.788;2023-09-19T05:15:59;22.40;79.20
11426;DHT22;5769;47.998;7.788;2023-09-19T05:18:27;22.40;79.20
11426;DHT22;5769;47.998;7.788;2023-09-19T05:20:53;22.40;79.20
11426;DHT22;5769;47.998;7.788;2023-09-19T05:23:21;22.40;79.20
11426;DHT22;5769;47.998;7.788;2023-09-19T05:25:48;22.40;79.20
11426;DHT22;5769;47.998;7.788;2023-09-19T05:28:16;22.40;79.10
11426;DHT22;5769;47.998;7.788;2023-09-19T05:30:42;22.40;79.10
11426;DHT22;5769;47.998;7.788;2023-09-19T05:33:09;22.40;79.10
11426;DHT22;5769;47.998;7.788;2023-09-19T05:35:36;22.40;79.10
11426;DHT22;5769;47.998;7.788;2023-09-19T05:38:05;22.40;79.10
11426;DHT22;5769;47.998;7.788;2023-09-19T05:40:34;22.40;79.10
11426;DHT22;5769;47.998;7.788;2023-09-19T05:43:01;22.40;79.10
11426;DHT22;5769;47.998;7.788;2023-09-19T05:45:30;22.40;79.00
11426;DHT22;5769;47.998;7.788;2023-09-19T05:48:07;22.40;79.00
11426;DHT22;5769;47.998;7.788;2023-09-19T05:50:34;22.40;79.00
11426;DHT22;5769;47.998;7.788;2023-09-19T05:53:01;22.40;79.00
11426;DHT22;5769;47.998;7.788;2023-09-19T05:55:29;22.40;79.00
11426;DHT22;5769;47.998;7.788;2023-09-19T05:57:56;22.40;79.00
11426;DHT22;5769;47.998;7.788;2023-09-19T06:00:23;22.40;79.00
11426;DHT22;5769;47.998;7.788;2023-09-19T06:02:53;22.30;79.00
11426;DHT22;5769;47.998;7.788;2023-09-19T06:05:20;22.30;78.90
11426;DHT22;5769;47.998;7.788;2023-09-19T06:07:47;22.40;78.90
11426;DHT22;5769;47.998;7.788;2023-09-19T06:10:14;22.30;78.90
11426;DHT22;5769;47.998;7.788;2023-09-19T06:12:41;22.30;78.90
11426;DHT22;5769;47.998;7.788;2023-09-19T06:15:11;22.30;78.90
11426;DHT22;5769;47.998;7.788;2023-09-19T06:17:41;22.40;78.90
11426;DHT22;5769;47.998;7.788;2023-09-19T06:20:09;22.40;78.90
11426;DHT22;5769;47.998;7.788;2023-09-19T06:22:40;22.40;78.90
11426;DHT22;5769;47.998;7.788;2023-09-19T06:25:08;22.30;78.80
11426;DHT22;5769;47.998;7.788;2023-09-19T06:27:37;22.40;78.90
11426;DHT22;5769;47.998;7.788;2023-09-19T06:30:05;22.30;78.80
11426;DHT22;5769;47.998;7.788;2023-09-19T06:32:33;22.30;78.80
11426;DHT22;5769;47.998;7.788;2023-09-19T06:34:59;22.30;78.80
11426;DHT22;5769;47.998;7.788;2023-09-19T06:37:28;22.30;78.80
11426;DHT22;5769;47.998;7.788;2023-09-19T06:39:55;22.30;78.80
11426;DHT22;5769;47.998;7.788;2023-09-19T06:42:22;22.30;78.80
11426;DHT22;5769;47.998;7.788;2023-09-19T06:44:49;22.30;78.80
11426;DHT22;5769;47.998;7.788;2023-09-19T06:47:15;22.40;78.90
11426;DHT22;5769;47.998;7.788;2023-09-19T06:49:42;22.30;78.80
11426;DHT22;5769;47.998;7.788;2023-09-19T06:52:10;22.30;78.90
11426;DHT22;5769;47.998;7.788;2023-09-19T06:54:38;22.30;78.80
11426;DHT22;5769;47.998;7.788;2023-09-19T06:57:05;22.30;78.80
11426;DHT22;5769;47.998;7.788;2023-09-19T06:59:35;22.30;78.80
11426;DHT22;5769;47.998;7.788;2023-09-19T07:02:02;22.30;78.80
11426;DHT22;5769;47.998;7.788;2023-09-19T07:04:31;22.30;78.80
11426;DHT22;5769;47.998;7.788;2023-09-19T07:06:58;22.30;78.80
11426;DHT22;5769;47.998;7.788;2023-09-19T07:09:24;22.30;78.80
11426;DHT22;5769;47.998;7.788;2023-09-19T07:11:54;22.30;78.70
11426;DHT22;5769;47.998;7.788;2023-09-19T07:14:20;22.30;78.80
11426;DHT22;5769;47.998;7.788;2023-09-19T07:16:47;22.30;78.80
11426;DHT22;5769;47.998;7.788;2023-09-19T07:19:15;22.40;78.90
11426;DHT22;5769;47.998;7.788;2023-09-19T07:21:41;22.30;78.80
11426;DHT22;5769;47.998;7.788;2023-09-19T07:24:09;22.30;78.80
11426;DHT22;5769;47.998;7.788;2023-09-19T07:26:35;22.30;78.80
11426;DHT22;5769;47.998;7.788;2023-09-19T07:29:03;22.30;78.90
11426;DHT22;5769;47.998;7.788;2023-09-19T07:31:32;22.30;78.90
11426;DHT22;5769;47.998;7.788;2023-09-19T07:33:59;22.30;79.00
11426;DHT22;5769;47.998;7.788;2023-09-19T07:36:25;22.30;79.00
11426;DHT22;5769;47.998;7.788;2023-09-19T07:38:55;22.30;79.10
11426;DHT22;5769;47.998;7.788;2023-09-19T07:41:23;22.30;79.10
11426;DHT22;5769;47.998;7.788;2023-09-19T07:43:50;22.40;79.20
11426;DHT22;5769;47.998;7.788;2023-09-19T07:46:19;22.40;79.20
11426;DHT22;5769;47.998;7.788;2023-09-19T07:48:46;22.30;79.20
11426;DHT22;5769;47.998;7.788;2023-09-19T07:51:14;22.30;79.20
11426;DHT22;5769;47.998;7.788;2023-09-19T07:53:41;22.30;79.30
11426;DHT22;5769;47.998;7.788;2023-09-19T07:56:10;22.40;79.40
11426;DHT22;5769;47.998;7.788;2023-09-19T07:58:39;22.30;79.30
11426;DHT22;5769;47.998;7.788;2023-09-19T08:01:10;22.40;79.40
11426;DHT22;5769;47.998;7.788;2023-09-19T08:03:39;22.40;79.40
11426;DHT22;5769;47.998;7.788;2023-09-19T08:06:07;22.30;79.40
11426;DHT22;5769;47.998;7.788;2023-09-19T08:08:34;22.30;79.40
11426;DHT22;5769;47.998;7.788;2023-09-19T08:11:03;22.30;79.40
11426;DHT22;5769;47.998;7.788;2023-09-19T08:13:35;22.40;79.50
11426;DHT22;5769;47.998;7.788;2023-09-19T08:16:03;22.30;79.40
11426;DHT22;5769;47.998;7.788;2023-09-19T08:18:30;22.30;79.40
11426;DHT22;5769;47.998;7.788;2023-09-19T08:20:58;22.40;79.50
11426;DHT22;5769;47.998;7.788;2023-09-19T08:23:26;22.30;79.40
11426;DHT22;5769;47.998;7.788;2023-09-19T08:25:56;22.30;79.40
11426;DHT22;5769;47.998;7.788;2023-09-19T08:28:23;22.30;79.40
11426;DHT22;5769;47.998;7.788;2023-09-19T08:30:50;22.30;79.50
11426;DHT22;5769;47.998;7.788;2023-09-19T08:33:18;22.30;79.50
11426;DHT22;5769;47.998;7.788;2023-09-19T08:35:46;22.30;79.50
11426;DHT22;5769;47.998;7.788;2023-09-19T08:38:14;22.40;79.60
11426;DHT22;5769;47.998;7.788;2023-09-19T08:40:41;22.30;79.50
11426;DHT22;5769;47.998;7.788;2023-09-19T08:43:09;22.30;79.50
11426;DHT22;5769;47.998;7.788;2023-09-19T08:45:36;22.40;79.60
11426;DHT22;5769;47.998;7.788;2023-09-19T08:48:15;22.30;79.60
11426;DHT22;5769;47.998;7.788;2023-09-19T08:50:47;22.30;79.60
11426;DHT22;5769;47.998;7.788;2023-09-19T08:53:27;22.30;79.60
11426;DHT22;5769;47.998;7.788;2023-09-19T08:55:57;22.30;79.60
11426;DHT22;5769;47.998;7.788;2023-09-19T08:58:31;22.40;79.60
11426;DHT22;5769;47.998;7.788;2023-09-19T09:01:01;22.40;79.60
11426;DHT22;5769;47.998;7.788;2023-09-19T09:03:32;22.30;79.50
11426;DHT22;5769;47.998;7.788;2023-09-19T09:05:59;22.30;79.40
11426;DHT22;5769;47.998;7.788;2023-09-19T09:08:29;22.30;79.40
11426;DHT22;5769;47.998;7.788;2023-09-19T09:10:56;22.30;79.40
11426;DHT22;5769;47.998;7.788;2023-09-19T09:13:24;22.30;79.30
11426;DHT22;5769;47.998;7.788;2023-09-19T09:15:51;22.30;79.10
11426;DHT22;5769;47.998;7.788;2023-09-19T09:18:19;22.30;78.90
11426;DHT22;5769;47.998;7.788;2023-09-19T09:20:46;22.30;79.00
11426;DHT22;5769;47.998;7.788;2023-09-19T09:23:14;22.30;79.00
11426;DHT22;5769;47.998;7.788;2023-09-19T09:25:49;22.30;79.00
11426;DHT22;5769;47.998;7.788;2023-09-19T09:28:21;22.30;79.00
11426;DHT22;5769;47.998;7.788;2023-09-19T09:30:48;22.30;79.00
11426;DHT22;5769;47.998;7.788;2023-09-19T09:33:15;22.30;79.00
11426;DHT22;5769;47.998;7.788;2023-09-19T09:35:50;22.30;79.00
11426;DHT22;5769;47.998;7.788;2023-09-19T09:38:19;22.30;79.00
11426;DHT22;5769;47.998;7.788;2023-09-19T09:40:48;22.30;79.10
11426;DHT22;5769;47.998;7.788;2023-09-19T09:43:42;22.30;79.10
11426;DHT22;5769;47.998;7.788;2023-09-19T09:46:13;22.30;79.20
11426;DHT22;5769;47.998;7.788;2023-09-19T09:49:00;22.30;79.20
11426;DHT22;5769;47.998;7.788;2023-09-19T09:52:00;22.30;79.20
11426;DHT22;5769;47.998;7.788;2023-09-19T09:54:31;22.30;79.30
11426;DHT22;5769;47.998;7.788;2023-09-19T09:57:05;22.30;79.30
11426;DHT22;5769;47.998;7.788;2023-09-19T09:59:50;22.30;79.30
11426;DHT22;5769;47.998;7.788;2023-09-19T10:02:19;22.30;79.30
11426;DHT22;5769;47.998;7.788;2023-09-19T10:04:51;22.30;79.30
11426;DHT22;5769;47.998;7.788;2023-09-19T10:07:25;22.30;79.30
11426;DHT22;5769;47.998;7.788;2023-09-19T10:09:57;22.30;79.30
11426;DHT22;5769;47.998;7.788;2023-09-19T10:12:33;22.30;79.30
11426;DHT22;5769;47.998;7.788;2023-09-19T10:15:04;22.30;79.30
11426;DHT22;5769;47.998;7.788;2023-09-19T10:17:34;22.30;79.20
11426;DHT22;5769;47.998;7.788;2023-09-19T10:20:02;22.30;79.20
11426;DHT22;5769;47.998;7.788;2023-09-19T10:22:36;22.30;79.30
11426;DHT22;5769;47.998;7.788;2023-09-19T10:25:04;22.30;79.30
11426;DHT22;5769;47.998;7.788;2023-09-19T10:27:35;22.30;79.30
11426;DHT22;5769;47.998;7.788;2023-09-19T10:30:06;22.30;79.30
11426;DHT22;5769;47.998;7.788;2023-09-19T10:32:35;22.30;79.30
11426;DHT22;5769;47.998;7.788;2023-09-19T10:35:02;22.30;79.30
11426;DHT22;5769;47.998;7.788;2023-09-19T10:37:32;22.30;79.20
11426;DHT22;5769;47.998;7.788;2023-09-19T10:40:00;22.30;79.20
11426;DHT22;5769;47.998;7.788;2023-09-19T10:42:27;22.30;80.00
11426;DHT22;5769;47.998;7.788;2023-09-19T10:44:58;22.30;79.20
11426;DHT22;5769;47.998;7.788;2023-09-19T10:47:26;22.30;79.20
11426;DHT22;5769;47.998;7.788;2023-09-19T10:49:53;22.30;79.20
11426;DHT22;5769;47.998;7.788;2023-09-19T10:52:23;22.30;79.20
11426;DHT22;5769;47.998;7.788;2023-09-19T10:54:53;22.30;79.10
11426;DHT22;5769;47.998;7.788;2023-09-19T10:57:23;22.30;79.10
11426;DHT22;5769;47.998;7.788;2023-09-19T11:00:04;22.30;79.10
11426;DHT22;5769;47.998;7.788;2023-09-19T11:03:17;22.30;79.10
11426;DHT22;5769;47.998;7.788;2023-09-19T11:06:07;22.30;79.10
11426;DHT22;5769;47.998;7.788;2023-09-19T11:08:52;22.30;78.80
11426;DHT22;5769;47.998;7.788;2023-09-19T11:11:45;22.30;78.90
11426;DHT22;5769;47.998;7.788;2023-09-19T11:14:37;22.30;78.90
11426;DHT22;5769;47.998;7.788;2023-09-19T11:17:33;22.40;79.10
11426;DHT22;5769;47.998;7.788;2023-09-19T11:20:22;22.40;79.10
11426;DHT22;5769;47.998;7.788;2023-09-19T11:23:20;22.40;79.00
11426;DHT22;5769;47.998;7.788;2023-09-19T11:25:51;22.40;79.00
11426;DHT22;5769;47.998;7.788;2023-09-19T11:28:34;22.40;79.00
11426;DHT22;5769;47.998;7.788;2023-09-19T11:34:43;22.40;78.70
11426;DHT22;5769;47.998;7.788;2023-09-19T11:40:46;22.40;78.90
11426;DHT22;5769;47.998;7.788;2023-09-19T11:43:33;22.40;78.10
11426;DHT22;5769;47.998;7.788;2023-09-19T11:46:06;22.40;78.50
11426;DHT22;5769;47.998;7.788;2023-09-19T11:48:32;22.40;78.50
11426;DHT22;5769;47.998;7.788;2023-09-19T11:51:02;22.50;78.60
11426;DHT22;5769;47.998;7.788;2023-09-19T11:53:40;22.50;78.60
11426;DHT22;5769;47.998;7.788;2023-09-19T11:56:09;22.50;78.60
11426;DHT22;5769;47.998;7.788;2023-09-19T11:58:37;22.50;78.60
11426;DHT22;5769;47.998;7.788;2023-09-19T12:01:05;22.50;78.50
11426;DHT22;5769;47.998;7.788;2023-09-19T12:03:37;22.50;78.50
11426;DHT22;5769;47.998;7.788;2023-09-19T12:06:12;22.50;78.40
11426;DHT22;5769;47.998;7.788;2023-09-19T12:08:40;22.50;78.40
11426;DHT22;5769;47.998;7.788;2023-09-19T12:11:12;22.50;78.30
11426;DHT22;5769;47.998;7.788;2023-09-19T12:13:44;22.50;78.20
11426;DHT22;5769;47.998;7.788;2023-09-19T12:16:13;22.50;78.10
11426;DHT22;5769;47.998;7.788;2023-09-19T12:18:41;22.50;78.00
11426;DHT22;5769;47.998;7.788;2023-09-19T12:21:23;22.50;77.90
11426;DHT22;5769;47.998;7.788;2023-09-19T12:24:07;22.50;77.80
11426;DHT22;5769;47.998;7.788;2023-09-19T12:26:41;22.50;77.70
11426;DHT22;5769;47.998;7.788;2023-09-19T12:29:15;22.50;75.80
11426;DHT22;5769;47.998;7.788;2023-09-19T12:31:48;22.50;77.10
11426;DHT22;5769;47.998;7.788;2023-09-19T12:34:16;22.50;77.10
11426;DHT22;5769;47.998;7.788;2023-09-19T12:36:46;22.50;77.10
11426;DHT22;5769;47.998;7.788;2023-09-19T12:39:23;22.50;77.10
11426;DHT22;5769;47.998;7.788;2023-09-19T12:41:51;22.50;76.90
11426;DHT22;5769;47.998;7.788;2023-09-19T12:44:19;22.50;76.80
11426;DHT22;5769;47.998;7.788;2023-09-19T12:46:46;22.50;76.80
11426;DHT22;5769;47.998;7.788;2023-09-19T12:49:19;22.50;76.70
11426;DHT22;5769;47.998;7.788;2023-09-19T12:51:47;22.50;76.60
11426;DHT22;5769;47.998;7.788;2023-09-19T12:54:14;22.50;76.50
11426;DHT22;5769;47.998;7.788;2023-09-19T12:56:43;22.50;76.10
11426;DHT22;5769;47.998;7.788;2023-09-19T12:59:12;22.50;76.10
11426;DHT22;5769;47.998;7.788;2023-09-19T13:01:40;22.50;76.10
11426;DHT22;5769;47.998;7.788;2023-09-19T13:04:14;22.50;76.10
11426;DHT22;5769;47.998;7.788;2023-09-19T13:06:44;22.50;76.10
11426;DHT22;5769;47.998;7.788;2023-09-19T13:09:12;22.60;76.10
11426;DHT22;5769;47.998;7.788;2023-09-19T13:11:40;22.60;76.10
11426;DHT22;5769;47.998;7.788;2023-09-19T13:14:19;22.60;76.10
11426;DHT22;5769;47.998;7.788;2023-09-19T13:16:57;22.50;76.00
11426;DHT22;5769;47.998;7.788;2023-09-19T13:19:37;22.60;76.10
11426;DHT22;5769;47.998;7.788;2023-09-19T13:24:49;22.60;75.70
11426;DHT22;5769;47.998;7.788;2023-09-19T13:27:16;22.60;75.60
11426;DHT22;5769;47.998;7.788;2023-09-19T13:29:43;22.60;75.60
11426;DHT22;5769;47.998;7.788;2023-09-19T13:32:10;22.60;75.60
11426;DHT22;5769;47.998;7.788;2023-09-19T13:34:37;22.60;75.60
11426;DHT22;5769;47.998;7.788;2023-09-19T13:37:03;22.60;75.60
11426;DHT22;5769;47.998;7.788;2023-09-19T13:39:31;22.60;75.60
11426;DHT22;5769;47.998;7.788;2023-09-19T13:41:59;22.60;75.60
11426;DHT22;5769;47.998;7.788;2023-09-19T13:44:28;22.60;75.60
11426;DHT22;5769;47.998;7.788;2023-09-19T13:46:55;22.50;75.50
11426;DHT22;5769;47.998;7.788;2023-09-19T13:49:22;22.60;75.50
11426;DHT22;5769;47.998;7.788;2023-09-19T13:51:49;22.60;75.50
11426;DHT22;5769;47.998;7.788;2023-09-19T13:54:15;22.60;75.50
11426;DHT22;5769;47.998;7.788;2023-09-19T13:56:42;22.60;75.40
11426;DHT22;5769;47.998;7.788;2023-09-19T13:59:10;22.60;75.40
11426;DHT22;5769;47.998;7.788;2023-09-19T14:01:37;22.60;75.40
11426;DHT22;5769;47.998;7.788;2023-09-19T14:04:05;22.60;75.30
11426;DHT22;5769;47.998;7.788;2023-09-19T14:06:32;22.60;75.30
11426;DHT22;5769;47.998;7.788;2023-09-19T14:08:58;22.60;75.30
11426;DHT22;5769;47.998;7.788;2023-09-19T14:11:26;22.60;75.20
11426;DHT22;5769;47.998;7.788;2023-09-19T14:13:53;22.60;75.30
11426;DHT22;5769;47.998;7.788;2023-09-19T14:16:21;22.60;75.20
11426;DHT22;5769;47.998;7.788;2023-09-19T14:18:50;22.60;74.90
11426;DHT22;5769;47.998;7.788;2023-09-19T14:21:17;22.60;74.60
11426;DHT22;5769;47.998;7.788;2023-09-19T14:23:44;22.60;74.40
11426;DHT22;5769;47.998;7.788;2023-09-19T14:26:11;22.60;74.10
11426;DHT22;5769;47.998;7.788;2023-09-19T14:28:38;22.60;73.80
11426;DHT22;5769;47.998;7.788;2023-09-19T14:31:06;22.60;73.80
11426;DHT22;5769;47.998;7.788;2023-09-19T14:33:34;22.60;73.60
11426;DHT22;5769;47.998;7.788;2023-09-19T14:36:05;22.60;73.50
11426;DHT22;5769;47.998;7.788;2023-09-19T14:38:34;22.60;73.40
11426;DHT22;5769;47.998;7.788;2023-09-19T14:41:01;22.60;73.30
11426;DHT22;5769;47.998;7.788;2023-09-19T14:43:28;22.60;73.20
11426;DHT22;5769;47.998;7.788;2023-09-19T14:45:55;22.60;73.30
11426;DHT22;5769;47.998;7.788;2023-09-19T14:48:22;22.60;74.40
11426;DHT22;5769;47.998;7.788;2023-09-19T14:50:52;22.60;74.80
11426;DHT22;5769;47.998;7.788;2023-09-19T14:53:19;22.60;73.70
11426;DHT22;5769;47.998;7.788;2023-09-19T14:55:45;22.60;74.50
11426;DHT22;5769;47.998;7.788;2023-09-19T14:58:13;22.60;74.60
11426;DHT22;5769;47.998;7.788;2023-09-19T15:00:39;22.60;74.50
11426;DHT22;5769;47.998;7.788;2023-09-19T15:03:06;22.60;74.60
11426;DHT22;5769;47.998;7.788;2023-09-19T15:05:33;22.60;74.50
11426;DHT22;5769;47.998;7.788;2023-09-19T15:08:01;22.60;74.50
11426;DHT22;5769;47.998;7.788;2023-09-19T15:10:28;22.60;74.50
11426;DHT22;5769;47.998;7.788;2023-09-19T15:12:55;22.60;74.20
11426;DHT22;5769;47.998;7.788;2023-09-19T15:15:22;22.70;74.30
11426;DHT22;5769;47.998;7.788;2023-09-19T15:17:49;22.70;74.30
11426;DHT22;5769;47.998;7.788;2023-09-19T15:20:15;22.70;74.40
11426;DHT22;5769;47.998;7.788;2023-09-19T15:22:43;22.60;74.20
11426;DHT22;5769;47.998;7.788;2023-09-19T15:25:11;22.70;74.30
11426;DHT22;5769;47.998;7.788;2023-09-19T15:27:37;22.60;74.20
11426;DHT22;5769;47.998;7.788;2023-09-19T15:30:08;22.70;74.20
11426;DHT22;5769;47.998;7.788;2023-09-19T15:32:36;22.70;74.30
11426;DHT22;5769;47.998;7.788;2023-09-19T15:35:03;22.70;74.20
11426;DHT22;5769;47.998;7.788;2023-09-19T15:37:29;22.70;74.20
11426;DHT22;5769;47.998;7.788;2023-09-19T15:39:56;22.70;74.10
11426;DHT22;5769;47.998;7.788;2023-09-19T15:42:24;22.70;74.10
11426;DHT22;5769;47.998;7.788;2023-09-19T15:44:51;22.70;74.10
11426;DHT22;5769;47.998;7.788;2023-09-19T15:47:17;22.60;74.00
11426;DHT22;5769;47.998;7.788;2023-09-19T15:49:45;22.70;74.10
11426;DHT22;5769;47.998;7.788;2023-09-19T15:52:12;22.70;74.00
11426;DHT22;5769;47.998;7.788;2023-09-19T15:54:38;22.60;73.90
11426;DHT22;5769;47.998;7.788;2023-09-19T15:57:09;22.70;73.90
11426;DHT22;5769;47.998;7.788;2023-09-19T15:59:39;22.70;73.90
11426;DHT22;5769;47.998;7.788;2023-09-19T16:02:06;22.70;73.90
11426;DHT22;5769;47.998;7.788;2023-09-19T16:04:32;22.70;73.80
11426;DHT22;5769;47.998;7.788;2023-09-19T16:07:00;22.70;73.80
11426;DHT22;5769;47.998;7.788;2023-09-19T16:09:27;22.70;73.80
11426;DHT22;5769;47.998;7.788;2023-09-19T16:11:53;22.70;73.70